sensor_id;sensor_type;location;lat;lon;timestamp;pressure;altitude;pressure_sealevel;temperature;humidity
38227;BME280;24026;49.446;8.576;2023-05-07T00:00:45;100433.69;;;20.19;49.55
38227;BME280;24026;49.446;8.576;2023-05-07T00:03:05;100434.59;;;20.14;49.67
38227;BME280;24026;49.446;8.576;2023-05-07T00:05:26;100439.69;;;20.16;49.31
38227;BME280;24026;49.446;8.576;2023-05-07T00:07:47;100436.50;;;20.14;49.68
38227;BME280;24026;49.446;8.576;2023-05-07T00:10:08;100433.81;;;20.14;49.45
38227;BME280;24026;49.446;8.576;2023-05-07T00:12:28;100427.91;;;20.12;49.39
38227;BME280;24026;49.446;8.576;2023-05-07T00:14:51;100423.00;;;20.14;49.61
38227;BME280;24026;49.446;8.576;2023-05-07T00:17:11;100421.09;;;20.14;49.78
38227;BME280;24026;49.446;8.576;2023-05-07T00:19:32;100418.72;;;20.13;49.73
38227;BME280;24026;49.446;8.576;2023-05-07T00:21:52;100415.22;;;20.12;49.80
38227;BME280;24026;49.446;8.576;2023-05-07T00:24:16;100407.44;;;20.11;49.50
38227;BME280;24026;49.446;8.576;2023-05-07T00:26:36;100409.63;;;20.09;49.63
38227;BME280;24026;49.446;8.576;2023-05-07T00:28:57;100408.84;;;20.08;49.54
38227;BME280;24026;49.446;8.576;2023-05-07T00:31:17;100407.53;;;20.06;49.79
38227;BME280;24026;49.446;8.576;2023-05-07T00:33:38;100408.34;;;20.06;49.71
38227;BME280;24026;49.446;8.576;2023-05-07T00:35:58;100411.56;;;20.08;49.95
38227;BME280;24026;49.446;8.576;2023-05-07T00:38:21;100412.16;;;20.05;49.86
38227;BME280;24026;49.446;8.576;2023-05-07T00:40:41;100411.38;;;20.05;49.67
38227;BME280;24026;49.446;8.576;2023-05-07T00:43:01;100402.28;;;20.01;50.06
38227;BME280;24026;49.446;8.576;2023-05-07T00:45:24;100408.16;;;20.03;50.13
38227;BME280;24026;49.446;8.576;2023-05-07T00:47:46;100413.06;;;20.01;50.08
38227;BME280;24026;49.446;8.576;2023-05-07T00:50:06;100409.09;;;19.98;49.85
38227;BME280;24026;49.446;8.576;2023-05-07T00:52:28;100403.69;;;19.98;50.30
38227;BME280;24026;49.446;8.576;2023-05-07T00:54:49;100402.88;;;19.97;50.08
38227;BME280;24026;49.446;8.576;2023-05-07T00:57:10;100404.28;;;19.95;49.98
38227;BME280;24026;49.446;8.576;2023-05-07T00:59:32;100407.00;;;19.95;50.25
38227;BME280;24026;49.446;8.576;2023-05-07T01:01:52;100400.47;;;19.96;49.94
38227;BME280;24026;49.446;8.576;2023-05-07T01:04:13;100384.91;;;19.93;50.44
38227;BME280;24026;49.446;8.576;2023-05-07T01:06:33;100391.41;;;19.92;50.37
38227;BME280;24026;49.446;8.576;2023-05-07T01:08:54;100384.41;;;19.91;50.32
38227;BME280;24026;49.446;8.576;2023-05-07T01:11:17;100383.94;;;19.89;50.21
38227;BME280;24026;49.446;8.576;2023-05-07T01:13:40;100390.09;;;19.89;50.52
38227;BME280;24026;49.446;8.576;2023-05-07T01:16:02;100383.94;;;19.89;50.64
38227;BME280;24026;49.446;8.576;2023-05-07T01:18:23;100388.53;;;19.88;50.35
38227;BME280;24026;49.446;8.576;2023-05-07T01:20:43;100385.66;;;19.85;50.26
38227;BME280;24026;49.446;8.576;2023-05-07T01:23:04;100380.56;;;19.83;50.31
38227;BME280;24026;49.446;8.576;2023-05-07T01:25:25;100385.13;;;19.83;50.47
38227;BME280;24026;49.446;8.576;2023-05-07T01:27:46;100380.56;;;19.83;50.44
38227;BME280;24026;49.446;8.576;2023-05-07T01:30:07;100375.47;;;19.82;50.34
38227;BME280;24026;49.446;8.576;2023-05-07T01:34:52;100375.47;;;19.82;50.61
38227;BME280;24026;49.446;8.576;2023-05-07T01:37:14;100373.25;;;19.84;50.52
38227;BME280;24026;49.446;8.576;2023-05-07T01:39:37;100368.47;;;19.80;50.77
38227;BME280;24026;49.446;8.576;2023-05-07T01:41:59;100369.56;;;19.79;50.47
38227;BME280;24026;49.446;8.576;2023-05-07T01:44:20;100372.25;;;19.79;50.30
38227;BME280;24026;49.446;8.576;2023-05-07T01:46:40;100376.38;;;19.77;50.42
38227;BME280;24026;49.446;8.576;2023-05-07T01:49:00;100369.38;;;19.76;50.49
38227;BME280;24026;49.446;8.576;2023-05-07T01:51:21;100370.97;;;19.77;50.50
38227;BME280;24026;49.446;8.576;2023-05-07T01:53:42;100376.94;;;19.74;50.99
38227;BME280;24026;49.446;8.576;2023-05-07T01:56:04;100373.75;;;19.72;50.52
38227;BME280;24026;49.446;8.576;2023-05-07T01:58:25;100381.53;;;19.73;50.90
38227;BME280;24026;49.446;8.576;2023-05-07T02:00:45;100385.94;;;19.69;50.84
38227;BME280;24026;49.446;8.576;2023-05-07T02:03:06;100380.84;;;19.68;50.89
38227;BME280;24026;49.446;8.576;2023-05-07T02:05:26;100381.13;;;19.66;50.57
38227;BME280;24026;49.446;8.576;2023-05-07T02:07:47;100379.75;;;19.69;50.68
38227;BME280;24026;49.446;8.576;2023-05-07T02:10:07;100376.88;;;19.65;50.81
38227;BME280;24026;49.446;8.576;2023-05-07T02:12:28;100383.34;;;19.64;50.93
38227;BME280;24026;49.446;8.576;2023-05-07T02:14:49;100383.03;;;19.66;50.87
38227;BME280;24026;49.446;8.576;2023-05-07T02:17:09;100381.25;;;19.61;51.15
38227;BME280;24026;49.446;8.576;2023-05-07T02:19:30;100389.34;;;19.61;50.86
38227;BME280;24026;49.446;8.576;2023-05-07T02:21:51;100381.56;;;19.59;51.03
38227;BME280;24026;49.446;8.576;2023-05-07T02:24:11;100383.16;;;19.60;51.27
38227;BME280;24026;49.446;8.576;2023-05-07T02:26:31;100389.97;;;19.58;51.13
38227;BME280;24026;49.446;8.576;2023-05-07T02:28:52;100388.47;;;19.52;50.92
38227;BME280;24026;49.446;8.576;2023-05-07T02:31:13;100388.16;;;19.53;51.31
38227;BME280;24026;49.446;8.576;2023-05-07T02:33:33;100387.03;;;19.54;51.23
38227;BME280;24026;49.446;8.576;2023-05-07T02:35:55;100400.03;;;19.52;51.23
38227;BME280;24026;49.446;8.576;2023-05-07T02:38:15;100403.84;;;19.51;51.18
38227;BME280;24026;49.446;8.576;2023-05-07T02:40:36;100397.94;;;19.49;51.24
38227;BME280;24026;49.446;8.576;2023-05-07T02:42:59;100396.34;;;19.48;51.33
38227;BME280;24026;49.446;8.576;2023-05-07T02:45:19;100393.97;;;19.47;51.56
38227;BME280;24026;49.446;8.576;2023-05-07T02:47:40;100390.44;;;19.46;51.50
38227;BME280;24026;49.446;8.576;2023-05-07T02:50:00;100386.38;;;19.49;51.44
38227;BME280;24026;49.446;8.576;2023-05-07T02:52:21;100380.50;;;19.47;51.26
38227;BME280;24026;49.446;8.576;2023-05-07T02:54:42;100381.09;;;19.43;51.29
38227;BME280;24026;49.446;8.576;2023-05-07T02:57:02;100376.78;;;19.42;51.56
38227;BME280;24026;49.446;8.576;2023-05-07T02:59:23;100379.47;;;19.42;51.65
38227;BME280;24026;49.446;8.576;2023-05-07T03:01:45;100380.59;;;19.41;51.61
38227;BME280;24026;49.446;8.576;2023-05-07T03:04:05;100377.91;;;19.41;51.58
38227;BME280;24026;49.446;8.576;2023-05-07T03:06:26;100383.59;;;19.40;51.79
38227;BME280;24026;49.446;8.576;2023-05-07T03:08:46;100384.97;;;19.37;51.82
38227;BME280;24026;49.446;8.576;2023-05-07T03:11:06;100384.47;;;19.35;51.43
38227;BME280;24026;49.446;8.576;2023-05-07T03:13:27;100385.56;;;19.34;51.84
38227;BME280;24026;49.446;8.576;2023-05-07T03:15:47;100373.69;;;19.35;51.76
38227;BME280;24026;49.446;8.576;2023-05-07T03:18:08;100373.69;;;19.35;51.45
38227;BME280;24026;49.446;8.576;2023-05-07T03:20:28;100371.91;;;19.31;51.61
38227;BME280;24026;49.446;8.576;2023-05-07T03:22:49;100370.81;;;19.32;51.79
38227;BME280;24026;49.446;8.576;2023-05-07T03:25:10;100365.44;;;19.32;51.73
38227;BME280;24026;49.446;8.576;2023-05-07T03:27:30;100370.81;;;19.32;52.00
38227;BME280;24026;49.446;8.576;2023-05-07T03:29:51;100370.81;;;19.32;51.82
38227;BME280;24026;49.446;8.576;2023-05-07T03:32:11;100365.22;;;19.28;51.56
38227;BME280;24026;49.446;8.576;2023-05-07T03:34:31;100363.03;;;19.30;51.59
38227;BME280;24026;49.446;8.576;2023-05-07T03:36:52;100371.22;;;19.25;51.62
38227;BME280;24026;49.446;8.576;2023-05-07T03:39:12;100373.63;;;19.27;51.92
38227;BME280;24026;49.446;8.576;2023-05-07T03:41:33;100367.41;;;19.26;52.05
38227;BME280;24026;49.446;8.576;2023-05-07T03:43:53;100367.41;;;19.26;51.81
38227;BME280;24026;49.446;8.576;2023-05-07T03:46:13;100370.91;;;19.27;52.05
38227;BME280;24026;49.446;8.576;2023-05-07T03:48:34;100369.81;;;19.28;51.95
38227;BME280;24026;49.446;8.576;2023-05-07T03:50:55;100379.97;;;19.31;51.71
38227;BME280;24026;49.446;8.576;2023-05-07T03:53:15;100375.72;;;19.30;51.46
38227;BME280;24026;49.446;8.576;2023-05-07T03:55:36;100375.50;;;19.26;51.78
38227;BME280;24026;49.446;8.576;2023-05-07T03:57:56;100386.59;;;19.24;51.70
38227;BME280;24026;49.446;8.576;2023-05-07T04:00:17;100380.69;;;19.22;51.90
38227;BME280;24026;49.446;8.576;2023-05-07T04:02:37;100380.38;;;19.24;51.68
38227;BME280;24026;49.446;8.576;2023-05-07T04:04:57;100389.34;;;19.19;52.05
38227;BME280;24026;49.446;8.576;2023-05-07T04:07:18;100395.06;;;19.18;51.84
38227;BME280;24026;49.446;8.576;2023-05-07T04:09:38;100392.38;;;19.18;52.14
38227;BME280;24026;49.446;8.576;2023-05-07T04:11:58;100392.06;;;19.19;52.22
38227;BME280;24026;49.446;8.576;2023-05-07T04:14:19;100394.56;;;19.16;51.92
38227;BME280;24026;49.446;8.576;2023-05-07T04:16:39;100397.25;;;19.16;52.24
38227;BME280;24026;49.446;8.576;2023-05-07T04:18:59;100391.56;;;19.17;51.81
38227;BME280;24026;49.446;8.576;2023-05-07T04:21:20;100391.38;;;19.14;51.82
38227;BME280;24026;49.446;8.576;2023-05-07T04:23:41;100390.28;;;19.15;51.91
38227;BME280;24026;49.446;8.576;2023-05-07T04:26:01;100394.25;;;19.17;52.10
38227;BME280;24026;49.446;8.576;2023-05-07T04:28:21;100398.34;;;19.15;51.99
38227;BME280;24026;49.446;8.576;2023-05-07T04:30:42;100400.75;;;19.16;51.91
38227;BME280;24026;49.446;8.576;2023-05-07T04:33:02;100397.34;;;19.11;52.20
38227;BME280;24026;49.446;8.576;2023-05-07T04:35:22;100401.66;;;19.12;52.29
38227;BME280;24026;49.446;8.576;2023-05-07T04:37:43;100401.34;;;19.13;51.91
38227;BME280;24026;49.446;8.576;2023-05-07T04:40:04;100402.44;;;19.12;51.86
38227;BME280;24026;49.446;8.576;2023-05-07T04:42:24;100401.34;;;19.13;52.13
38227;BME280;24026;49.446;8.576;2023-05-07T04:44:45;100405.91;;;19.13;51.90
38227;BME280;24026;49.446;8.576;2023-05-07T04:47:05;100395.47;;;19.11;52.10
38227;BME280;24026;49.446;8.576;2023-05-07T04:49:26;100399.44;;;19.14;51.83
38227;BME280;24026;49.446;8.576;2023-05-07T04:51:46;100404.84;;;19.14;52.20
38227;BME280;24026;49.446;8.576;2023-05-07T04:54:07;100404.34;;;19.12;52.18
38227;BME280;24026;49.446;8.576;2023-05-07T04:56:28;100404.63;;;19.10;52.25
38227;BME280;24026;49.446;8.576;2023-05-07T04:58:50;100408.13;;;19.11;51.90
38227;BME280;24026;49.446;8.576;2023-05-07T05:01:10;100404.84;;;19.14;52.23
38227;BME280;24026;49.446;8.576;2023-05-07T05:03:30;100406.84;;;19.08;52.15
38227;BME280;24026;49.446;8.576;2023-05-07T05:05:51;100410.50;;;19.12;51.89
38227;BME280;24026;49.446;8.576;2023-05-07T05:08:12;100413.41;;;19.16;52.06
38227;BME280;24026;49.446;8.576;2023-05-07T05:10:33;100411.31;;;19.13;52.29
38227;BME280;24026;49.446;8.576;2023-05-07T05:12:53;100413.69;;;19.14;51.88
38227;BME280;24026;49.446;8.576;2023-05-07T05:15:13;100420.19;;;19.13;52.20
38227;BME280;24026;49.446;8.576;2023-05-07T05:17:34;100417.81;;;19.12;52.21
38227;BME280;24026;49.446;8.576;2023-05-07T05:19:55;100422.59;;;19.15;52.17
38227;BME280;24026;49.446;8.576;2023-05-07T05:22:16;100423.19;;;19.12;52.27
38227;BME280;24026;49.446;8.576;2023-05-07T05:24:36;100422.59;;;19.15;51.96
38227;BME280;24026;49.446;8.576;2023-05-07T05:26:57;100429.06;;;19.14;51.94
38227;BME280;24026;49.446;8.576;2023-05-07T05:29:19;100419.91;;;19.15;51.80
38227;BME280;24026;49.446;8.576;2023-05-07T05:31:40;100423.38;;;19.15;51.99
38227;BME280;24026;49.446;8.576;2023-05-07T05:34:02;100425.50;;;19.18;51.65
38227;BME280;24026;49.446;8.576;2023-05-07T05:36:22;100424.72;;;19.18;52.07
38227;BME280;24026;49.446;8.576;2023-05-07T05:38:43;100429.75;;;19.19;51.80
38227;BME280;24026;49.446;8.576;2023-05-07T05:41:04;100428.78;;;19.15;52.06
38227;BME280;24026;49.446;8.576;2023-05-07T05:43:24;100431.19;;;19.17;52.07
38227;BME280;24026;49.446;8.576;2023-05-07T05:45:45;100431.19;;;19.17;51.73
38227;BME280;24026;49.446;8.576;2023-05-07T05:48:06;100431.97;;;19.17;52.22
38227;BME280;24026;49.446;8.576;2023-05-07T05:50:26;100428.97;;;19.19;52.11
38227;BME280;24026;49.446;8.576;2023-05-07T05:52:47;100434.84;;;19.21;51.78
38227;BME280;24026;49.446;8.576;2023-05-07T05:55:08;100438.66;;;19.20;51.89
38227;BME280;24026;49.446;8.576;2023-05-07T05:57:28;100438.38;;;19.21;52.06
38227;BME280;24026;49.446;8.576;2023-05-07T05:59:49;100435.69;;;19.21;52.10
38227;BME280;24026;49.446;8.576;2023-05-07T06:02:09;100432.47;;;19.19;51.82
38227;BME280;24026;49.446;8.576;2023-05-07T06:04:30;100435.16;;;19.19;52.03
38227;BME280;24026;49.446;8.576;2023-05-07T06:06:50;100437.84;;;19.19;51.92
38227;BME280;24026;49.446;8.576;2023-05-07T06:09:11;100438.88;;;19.23;51.79
38227;BME280;24026;49.446;8.576;2023-05-07T06:11:32;100443.47;;;19.23;51.85
38227;BME280;24026;49.446;8.576;2023-05-07T06:13:52;100448.03;;;19.22;52.19
38227;BME280;24026;49.446;8.576;2023-05-07T06:16:13;100443.16;;;19.24;52.01
38227;BME280;24026;49.446;8.576;2023-05-07T06:18:34;100437.97;;;19.28;51.77
38227;BME280;24026;49.446;8.576;2023-05-07T06:20:56;100440.69;;;19.28;51.91
38227;BME280;24026;49.446;8.576;2023-05-07T06:23:16;100437.88;;;19.33;51.70
38227;BME280;24026;49.446;8.576;2023-05-07T06:25:36;100439.25;;;19.31;51.71
38227;BME280;24026;49.446;8.576;2023-05-07T06:27:57;100446.94;;;19.37;51.53
38227;BME280;24026;49.446;8.576;2023-05-07T06:30:17;100443.97;;;19.39;51.78
38227;BME280;24026;49.446;8.576;2023-05-07T06:32:39;100441.56;;;19.37;51.43
38227;BME280;24026;49.446;8.576;2023-05-07T06:35:00;100446.47;;;19.35;51.60
38227;BME280;24026;49.446;8.576;2023-05-07T06:37:20;100445.06;;;19.38;51.42
38227;BME280;24026;49.446;8.576;2023-05-07T06:39:41;100451.53;;;19.37;51.70
38227;BME280;24026;49.446;8.576;2023-05-07T06:42:01;100454.94;;;19.42;51.33
38227;BME280;24026;49.446;8.576;2023-05-07T06:44:22;100459.53;;;19.42;51.67
38227;BME280;24026;49.446;8.576;2023-05-07T06:46:43;100450.84;;;19.45;51.24
38227;BME280;24026;49.446;8.576;2023-05-07T06:49:03;100457.22;;;19.49;51.43
38227;BME280;24026;49.446;8.576;2023-05-07T06:51:23;100444.78;;;19.53;51.57
38227;BME280;24026;49.446;8.576;2023-05-07T06:53:44;100447.97;;;19.55;51.36
38227;BME280;24026;49.446;8.576;2023-05-07T06:56:05;100442.28;;;19.57;51.17
38227;BME280;24026;49.446;8.576;2023-05-07T06:58:25;100444.47;;;19.55;51.15
38227;BME280;24026;49.446;8.576;2023-05-07T07:00:45;100435.47;;;19.59;50.97
38227;BME280;24026;49.446;8.576;2023-05-07T07:03:06;100444.56;;;19.63;51.09
38227;BME280;24026;49.446;8.576;2023-05-07T07:05:27;100448.34;;;19.62;51.08
38227;BME280;24026;49.446;8.576;2023-05-07T07:07:47;100449.16;;;19.63;51.15
38227;BME280;24026;49.446;8.576;2023-05-07T07:10:12;100447.56;;;19.62;51.21
38227;BME280;24026;49.446;8.576;2023-05-07T07:12:33;100451.56;;;19.65;51.05
38227;BME280;24026;49.446;8.576;2023-05-07T07:14:53;100452.66;;;19.63;51.09
38227;BME280;24026;49.446;8.576;2023-05-07T07:17:14;100448.22;;;19.68;51.17
38227;BME280;24026;49.446;8.576;2023-05-07T07:19:34;100449.84;;;19.69;51.26
38227;BME280;24026;49.446;8.576;2023-05-07T07:21:54;100457.03;;;19.73;50.75
38227;BME280;24026;49.446;8.576;2023-05-07T07:24:15;100454.25;;;19.78;50.72
38227;BME280;24026;49.446;8.576;2023-05-07T07:26:41;100456.47;;;19.76;50.96
38227;BME280;24026;49.446;8.576;2023-05-07T07:29:02;100459.66;;;19.78;50.74
38227;BME280;24026;49.446;8.576;2023-05-07T07:31:23;100456.47;;;19.76;50.65
38227;BME280;24026;49.446;8.576;2023-05-07T07:33:43;100456.16;;;19.78;50.67
38227;BME280;24026;49.446;8.576;2023-05-07T07:36:05;100458.25;;;19.81;50.74
38227;BME280;24026;49.446;8.576;2023-05-07T07:38:25;100453.84;;;19.85;50.49
38227;BME280;24026;49.446;8.576;2023-05-07T07:40:47;100458.13;;;19.86;50.87
38227;BME280;24026;49.446;8.576;2023-05-07T07:43:07;100458.03;;;19.91;50.43
38227;BME280;24026;49.446;8.576;2023-05-07T07:45:28;100466.13;;;19.91;50.27
38227;BME280;24026;49.446;8.576;2023-05-07T07:47:49;100460.63;;;19.96;50.56
38227;BME280;24026;49.446;8.576;2023-05-07T07:50:09;100467.59;;;19.97;50.40
38227;BME280;24026;49.446;8.576;2023-05-07T07:52:30;100462.09;;;20.03;50.37
38227;BME280;24026;49.446;8.576;2023-05-07T07:54:50;100467.69;;;20.06;49.81
38227;BME280;24026;49.446;8.576;2023-05-07T07:57:11;100462.63;;;20.05;49.89
38227;BME280;24026;49.446;8.576;2023-05-07T07:59:31;100460.59;;;20.10;49.86
38227;BME280;24026;49.446;8.576;2023-05-07T08:01:51;100460.78;;;20.14;49.54
38227;BME280;24026;49.446;8.576;2023-05-07T08:04:14;100466.38;;;20.17;49.70
38227;BME280;24026;49.446;8.576;2023-05-07T08:06:34;100471.75;;;20.17;49.51
38227;BME280;24026;49.446;8.576;2023-05-07T08:08:55;100466.25;;;20.23;49.41
38227;BME280;24026;49.446;8.576;2023-05-07T08:11:16;100471.66;;;20.23;49.88
38227;BME280;24026;49.446;8.576;2023-05-07T08:13:36;100483.94;;;20.29;49.39
38227;BME280;24026;49.446;8.576;2023-05-07T08:15:58;100490.94;;;20.30;49.45
38227;BME280;24026;49.446;8.576;2023-05-07T08:18:18;100486.03;;;20.32;49.34
38227;BME280;24026;49.446;8.576;2023-05-07T08:20:39;100485.13;;;20.36;49.35
38227;BME280;24026;49.446;8.576;2023-05-07T08:22:59;100486.09;;;20.41;48.93
38227;BME280;24026;49.446;8.576;2023-05-07T08:25:20;100483.22;;;20.37;49.34
38227;BME280;24026;49.446;8.576;2023-05-07T08:27:40;100484.47;;;20.40;49.30
38227;BME280;24026;49.446;8.576;2023-05-07T08:30:01;100486.09;;;20.41;49.46
38227;BME280;24026;49.446;8.576;2023-05-07T08:32:21;100489.56;;;20.41;49.15
38227;BME280;24026;49.446;8.576;2023-05-07T08:34:42;100490.28;;;20.47;49.25
38227;BME280;24026;49.446;8.576;2023-05-07T08:37:02;100495.38;;;20.48;48.79
38227;BME280;24026;49.446;8.576;2023-05-07T08:39:23;100495.38;;;20.48;48.75
38227;BME280;24026;49.446;8.576;2023-05-07T08:41:48;100500.34;;;20.55;49.05
38227;BME280;24026;49.446;8.576;2023-05-07T08:44:12;100501.31;;;20.59;48.55
38227;BME280;24026;49.446;8.576;2023-05-07T08:46:34;100501.81;;;20.61;48.58
38227;BME280;24026;49.446;8.576;2023-05-07T08:48:54;100495.03;;;20.64;48.95
38227;BME280;24026;49.446;8.576;2023-05-07T08:51:19;100498.72;;;20.68;48.35
38227;BME280;24026;49.446;8.576;2023-05-07T08:53:41;100498.41;;;20.69;48.68
38227;BME280;24026;49.446;8.576;2023-05-07T08:56:02;100486.69;;;20.74;48.31
38227;BME280;24026;49.446;8.576;2023-05-07T08:58:22;100489.09;;;20.76;48.17
38227;BME280;24026;49.446;8.576;2023-05-07T09:00:43;100476.53;;;20.80;48.52
38227;BME280;24026;49.446;8.576;2023-05-07T09:03:03;100472.75;;;20.81;48.16
38227;BME280;24026;49.446;8.576;2023-05-07T09:05:24;100460.25;;;20.85;48.14
38227;BME280;24026;49.446;8.576;2023-05-07T09:07:45;100461.81;;;20.86;48.07
38227;BME280;24026;49.446;8.576;2023-05-07T09:10:06;100466.59;;;20.89;48.34
38227;BME280;24026;49.446;8.576;2023-05-07T09:12:27;100466.31;;;20.90;48.22
38227;BME280;24026;49.446;8.576;2023-05-07T09:14:47;100468.69;;;20.92;48.15
38227;BME280;24026;49.446;8.576;2023-05-07T09:17:07;100474.88;;;20.92;48.28
38227;BME280;24026;49.446;8.576;2023-05-07T09:19:28;100471.09;;;20.94;48.09
38227;BME280;24026;49.446;8.576;2023-05-07T09:21:48;100471.56;;;20.96;47.97
38227;BME280;24026;49.446;8.576;2023-05-07T09:24:08;100466.66;;;20.98;48.12
38227;BME280;24026;49.446;8.576;2023-05-07T09:26:29;100464.44;;;21.00;48.04
38227;BME280;24026;49.446;8.576;2023-05-07T09:28:50;100478.44;;;21.02;47.71
38227;BME280;24026;49.446;8.576;2023-05-07T09:31:11;100475.13;;;21.05;47.54
38227;BME280;24026;49.446;8.576;2023-05-07T09:33:31;100470.22;;;21.07;47.88
38227;BME280;24026;49.446;8.576;2023-05-07T09:35:52;100485.00;;;21.09;47.56
38227;BME280;24026;49.446;8.576;2023-05-07T09:38:12;100487.06;;;21.13;47.61
38227;BME280;24026;49.446;8.576;2023-05-07T09:40:32;100480.56;;;21.14;47.54
38227;BME280;24026;49.446;8.576;2023-05-07T09:42:53;100482.16;;;21.15;47.38
38227;BME280;24026;49.446;8.576;2023-05-07T09:45:14;100475.34;;;21.17;47.42
38227;BME280;24026;49.446;8.576;2023-05-07T09:47:36;100477.75;;;21.19;47.81
38227;BME280;24026;49.446;8.576;2023-05-07T09:49:59;100476.63;;;21.20;47.38
38227;BME280;24026;49.446;8.576;2023-05-07T09:52:22;100468.19;;;21.21;47.59
38227;BME280;24026;49.446;8.576;2023-05-07T09:54:45;100463.31;;;21.23;47.44
38227;BME280;24026;49.446;8.576;2023-05-07T09:57:05;100467.56;;;21.24;47.52
38227;BME280;24026;49.446;8.576;2023-05-07T09:59:27;100465.34;;;21.26;47.71
38227;BME280;24026;49.446;8.576;2023-05-07T10:01:48;100472.38;;;21.27;47.60
38227;BME280;24026;49.446;8.576;2023-05-07T10:04:10;100467.44;;;21.29;47.28
38227;BME280;24026;49.446;8.576;2023-05-07T10:06:31;100470.63;;;21.32;47.22
38227;BME280;24026;49.446;8.576;2023-05-07T10:08:52;100467.59;;;21.33;47.45
38227;BME280;24026;49.446;8.576;2023-05-07T10:11:13;100461.91;;;21.35;47.47
38227;BME280;24026;49.446;8.576;2023-05-07T10:13:35;100454.28;;;21.37;47.05
38227;BME280;24026;49.446;8.576;2023-05-07T10:15:57;100457.47;;;21.39;47.37
38227;BME280;24026;49.446;8.576;2023-05-07T10:18:18;100454.16;;;21.42;47.19
38227;BME280;24026;49.446;8.576;2023-05-07T10:20:42;100446.50;;;21.44;47.16
38227;BME280;24026;49.446;8.576;2023-05-07T10:23:06;100451.34;;;21.47;47.25
38227;BME280;24026;49.446;8.576;2023-05-07T10:25:32;100454.81;;;21.48;46.99
38227;BME280;24026;49.446;8.576;2023-05-07T10:27:54;100446.88;;;21.51;47.21
38227;BME280;24026;49.446;8.576;2023-05-07T10:33:03;100444.34;;;21.55;46.92
38227;BME280;24026;49.446;8.576;2023-05-07T10:35:29;100437.53;;;21.57;47.04
38227;BME280;24026;49.446;8.576;2023-05-07T10:37:52;100438.00;;;21.59;46.98
38227;BME280;24026;49.446;8.576;2023-05-07T10:40:13;100435.16;;;21.64;46.96
38227;BME280;24026;49.446;8.576;2023-05-07T10:42:33;100445.34;;;21.68;46.92
38227;BME280;24026;49.446;8.576;2023-05-07T10:44:54;100430.72;;;21.69;46.73
38227;BME280;24026;49.446;8.576;2023-05-07T10:47:16;100439.00;;;21.72;46.78
38227;BME280;24026;49.446;8.576;2023-05-07T10:52:19;100441.84;;;21.76;46.85
38227;BME280;24026;49.446;8.576;2023-05-07T10:54:40;100441.22;;;21.79;46.78
38227;BME280;24026;49.446;8.576;2023-05-07T10:57:36;100432.00;;;21.80;46.86
38227;BME280;24026;49.446;8.576;2023-05-07T10:59:56;100432.97;;;21.84;46.90
38227;BME280;24026;49.446;8.576;2023-05-07T11:02:16;100430.09;;;21.89;46.54
38227;BME280;24026;49.446;8.576;2023-05-07T11:04:37;100424.06;;;21.92;46.63
38227;BME280;24026;49.446;8.576;2023-05-07T11:12:13;100412.94;;;22.02;46.37
38227;BME280;24026;49.446;8.576;2023-05-07T11:17:02;100413.25;;;22.10;46.15
38227;BME280;24026;49.446;8.576;2023-05-07T11:19:53;100413.25;;;22.10;46.02
38227;BME280;24026;49.446;8.576;2023-05-07T11:24:53;100401.94;;;22.16;46.02
38227;BME280;24026;49.446;8.576;2023-05-07T11:27:13;100409.41;;;22.19;46.20
38227;BME280;24026;49.446;8.576;2023-05-07T11:29:34;100410.72;;;22.22;45.99
38227;BME280;24026;49.446;8.576;2023-05-07T11:31:55;100403.53;;;22.26;45.81
38227;BME280;24026;49.446;8.576;2023-05-07T11:34:20;100402.91;;;22.29;45.94
38227;BME280;24026;49.446;8.576;2023-05-07T11:36:42;100398.75;;;22.32;45.81
38227;BME280;24026;49.446;8.576;2023-05-07T11:39:04;100393.84;;;22.34;45.76
38227;BME280;24026;49.446;8.576;2023-05-07T11:41:37;100397.81;;;22.36;45.46
38227;BME280;24026;49.446;8.576;2023-05-07T11:43:58;100391.75;;;22.39;45.64
38227;BME280;24026;49.446;8.576;2023-05-07T11:46:19;100393.03;;;22.42;45.52
38227;BME280;24026;49.446;8.576;2023-05-07T11:48:40;100392.38;;;22.45;45.49
38227;BME280;24026;49.446;8.576;2023-05-07T11:51:03;100394.44;;;22.48;45.20
38227;BME280;24026;49.446;8.576;2023-05-07T11:53:28;100393.03;;;22.51;45.35
38227;BME280;24026;49.446;8.576;2023-05-07T11:55:55;100391.25;;;22.55;45.27
38227;BME280;24026;49.446;8.576;2023-05-07T11:58:23;100378.53;;;22.55;45.07
38227;BME280;24026;49.446;8.576;2023-05-07T12:00:53;100378.66;;;22.59;45.07
38227;BME280;24026;49.446;8.576;2023-05-07T12:03:14;100375.00;;;22.64;45.30
38227;BME280;24026;49.446;8.576;2023-05-07T12:05:34;100371.63;;;22.67;44.87
38227;BME280;24026;49.446;8.576;2023-05-07T12:07:57;100377.22;;;22.70;44.92
38227;BME280;24026;49.446;8.576;2023-05-07T12:10:18;100383.88;;;22.73;44.83
38227;BME280;24026;49.446;8.576;2023-05-07T12:12:46;100384.03;;;22.76;44.84
38227;BME280;24026;49.446;8.576;2023-05-07T12:15:07;100378.75;;;22.80;44.82
38227;BME280;24026;49.446;8.576;2023-05-07T12:17:28;100377.31;;;22.83;44.58
38227;BME280;24026;49.446;8.576;2023-05-07T12:19:48;100375.53;;;22.87;44.54
38227;BME280;24026;49.446;8.576;2023-05-07T12:22:09;100386.53;;;22.90;44.43
38227;BME280;24026;49.446;8.576;2023-05-07T12:25:02;100372.50;;;22.88;44.25
38227;BME280;24026;49.446;8.576;2023-05-07T12:27:23;100370.88;;;22.96;44.44
38227;BME280;24026;49.446;8.576;2023-05-07T12:29:45;100369.09;;;23.00;44.31
38227;BME280;24026;49.446;8.576;2023-05-07T12:32:06;100371.16;;;23.03;44.15
38227;BME280;24026;49.446;8.576;2023-05-07T12:34:27;100370.06;;;23.04;44.41
38227;BME280;24026;49.446;8.576;2023-05-07T12:36:48;100366.72;;;23.07;44.20